createdAt,value
2018-09-09T00:01:18.247Z,99.90
2018-09-09T00:03:45.394Z,99.90
2018-09-09T00:06:12.551Z,99.90
2018-09-09T00:08:39.718Z,99.90
2018-09-09T00:11:06.872Z,99.90
2018-09-09T00:13:34.016Z,99.90
2018-09-09T00:16:01.192Z,99.90
2018-09-09T00:18:28.323Z,99.90
2018-09-09T00:20:55.457Z,99.90
2018-09-09T00:23:22.606Z,99.90
2018-09-09T00:25:49.754Z,99.90
2018-09-09T00:28:16.890Z,99.90
2018-09-09T00:30:44.047Z,99.90
2018-09-09T00:33:11.188Z,99.90
2018-09-09T00:35:38.332Z,99.90
2018-09-09T00:38:05.554Z,99.90
2018-09-09T00:40:32.724Z,99.90
2018-09-09T00:42:59.896Z,99.90
2018-09-09T00:45:27.074Z,99.90
2018-09-09T00:47:54.244Z,99.90
2018-09-09T00:51:28.214Z,99.90
2018-09-09T00:53:55.375Z,99.90
2018-09-09T00:56:22.550Z,99.90
2018-09-09T00:58:49.712Z,99.90
2018-09-09T01:01:17.118Z,99.90
2018-09-09T01:03:45.503Z,99.90
2018-09-09T01:06:12.713Z,99.90
2018-09-09T01:08:39.877Z,99.90
2018-09-09T01:11:07.608Z,99.90
2018-09-09T01:13:34.975Z,99.90
2018-09-09T01:16:02.147Z,99.90
2018-09-09T01:18:29.628Z,99.90
2018-09-09T01:20:56.821Z,99.90
2018-09-09T01:23:23.994Z,99.90
2018-09-09T01:25:51.175Z,99.90
2018-09-09T01:28:18.370Z,99.90
2018-09-09T01:30:45.614Z,99.90
2018-09-09T01:33:12.832Z,99.90
2018-09-09T01:35:40.013Z,99.90
2018-09-09T01:38:07.176Z,99.90
2018-09-09T01:40:34.372Z,99.90
2018-09-09T01:43:01.625Z,99.90
2018-09-09T01:45:28.827Z,99.90
2018-09-09T01:47:56.030Z,99.90
2018-09-09T01:50:23.236Z,99.90
2018-09-09T01:52:50.429Z,99.90
2018-09-09T01:55:17.625Z,99.90
2018-09-09T01:57:44.823Z,99.90
2018-09-09T02:00:12.059Z,99.90
2018-09-09T02:02:39.255Z,99.90
2018-09-09T02:05:06.516Z,99.90
2018-09-09T02:07:33.720Z,99.90
2018-09-09T02:10:00.922Z,99.90
2018-09-09T02:12:28.132Z,99.90
2018-09-09T02:14:55.360Z,99.90
2018-09-09T02:17:22.560Z,99.90
2018-09-09T02:19:49.748Z,99.90
2018-09-09T02:22:16.955Z,99.90
2018-09-09T02:24:44.151Z,99.90
2018-09-09T02:27:11.347Z,99.90
2018-09-09T02:29:38.543Z,99.90
2018-09-09T02:32:05.750Z,99.90
2018-09-09T02:34:32.949Z,99.90
2018-09-09T02:37:00.147Z,99.90
2018-09-09T02:39:27.381Z,99.90
2018-09-09T02:41:54.584Z,99.90
2018-09-09T02:44:21.787Z,99.90
2018-09-09T02:46:48.984Z,99.90
2018-09-09T02:49:16.188Z,99.90
2018-09-09T02:51:43.384Z,99.90
2018-09-09T02:54:10.575Z,99.90
2018-09-09T02:56:37.776Z,99.90
2018-09-09T02:59:04.997Z,99.90
2018-09-09T03:01:32.193Z,99.90
2018-09-09T03:03:59.562Z,99.90
2018-09-09T03:06:26.812Z,99.90
2018-09-09T03:08:54.036Z,99.90
2018-09-09T03:11:21.220Z,99.90
2018-09-09T03:13:48.452Z,99.90
2018-09-09T03:16:15.639Z,99.90
2018-09-09T03:18:43.190Z,99.90
2018-09-09T03:21:10.423Z,99.90
2018-09-09T03:23:37.625Z,99.90
2018-09-09T03:26:04.917Z,99.90
2018-09-09T03:28:32.880Z,99.90
2018-09-09T03:31:00.033Z,99.90
2018-09-09T03:33:27.238Z,99.90
2018-09-09T03:35:54.458Z,99.90
2018-09-09T03:38:21.684Z,99.90
2018-09-09T03:40:49.364Z,99.90
2018-09-09T03:43:16.601Z,99.90
2018-09-09T03:45:43.971Z,99.90
2018-09-09T03:48:11.336Z,99.90
2018-09-09T03:50:38.567Z,99.90
2018-09-09T03:53:05.843Z,99.90
2018-09-09T03:55:33.067Z,99.90
2018-09-09T03:58:00.311Z,99.90
2018-09-09T04:00:27.537Z,99.90
2018-09-09T04:02:54.761Z,99.90
2018-09-09T04:05:21.999Z,99.90
2018-09-09T04:07:49.344Z,99.90
2018-09-09T04:10:16.586Z,99.90
2018-09-09T04:12:43.806Z,99.90
2018-09-09T04:15:11.040Z,99.90
2018-09-09T04:17:38.260Z,99.90
2018-09-09T04:20:05.688Z,99.90
2018-09-09T04:22:32.909Z,99.90
2018-09-09T04:25:00.155Z,99.90
2018-09-09T04:27:27.372Z,99.90
2018-09-09T04:29:54.588Z,99.90
2018-09-09T04:32:21.844Z,99.90
2018-09-09T04:34:49.066Z,99.90
2018-09-09T04:37:16.276Z,99.90
2018-09-09T04:39:43.484Z,99.90
2018-09-09T04:42:10.684Z,99.90
2018-09-09T04:44:37.884Z,99.90
2018-09-09T04:47:05.106Z,99.90
2018-09-09T04:49:32.420Z,99.90
2018-09-09T04:51:59.635Z,99.90
2018-09-09T04:54:26.837Z,99.90
2018-09-09T04:56:54.045Z,99.90
2018-09-09T04:59:21.492Z,99.90
2018-09-09T05:01:48.705Z,99.90
2018-09-09T05:04:15.901Z,99.90
2018-09-09T05:06:43.111Z,99.90
2018-09-09T05:09:10.311Z,99.90
2018-09-09T05:11:37.554Z,99.90
2018-09-09T05:14:04.794Z,99.90
2018-09-09T05:16:32.263Z,99.90
2018-09-09T05:18:59.464Z,99.90
2018-09-09T05:21:26.679Z,99.90
2018-09-09T05:23:53.871Z,99.90
2018-09-09T05:26:21.064Z,99.90
2018-09-09T05:28:48.260Z,99.90
2018-09-09T05:31:15.519Z,99.90
2018-09-09T05:33:42.721Z,99.90
2018-09-09T05:36:09.915Z,99.90
2018-09-09T05:38:37.111Z,99.90
2018-09-09T05:41:04.379Z,99.90
2018-09-09T05:43:31.748Z,99.90
2018-09-09T05:45:58.954Z,99.90
2018-09-09T05:48:26.147Z,99.90
2018-09-09T05:50:53.348Z,99.90
2018-09-09T05:53:20.551Z,99.90
2018-09-09T05:55:47.739Z,99.90
2018-09-09T05:58:14.946Z,99.90
2018-09-09T06:00:42.192Z,99.90
2018-09-09T06:03:09.385Z,99.90
2018-09-09T06:05:36.559Z,99.90
2018-09-09T06:08:03.755Z,99.90
2018-09-09T06:10:30.956Z,99.90
2018-09-09T06:12:58.166Z,99.90
2018-09-09T06:15:25.376Z,99.90
2018-09-09T06:17:52.581Z,99.90
2018-09-09T06:20:19.800Z,99.90
2018-09-09T06:22:46.995Z,99.90
2018-09-09T06:25:14.193Z,99.90
2018-09-09T06:27:41.387Z,99.90
2018-09-09T06:30:08.604Z,99.90
2018-09-09T06:32:35.828Z,99.90
2018-09-09T06:35:03.085Z,99.90
2018-09-09T06:37:30.321Z,99.90
2018-09-09T06:39:57.691Z,97.90
2018-09-09T06:42:24.955Z,98.10
2018-09-09T06:44:52.179Z,97.50
2018-09-09T06:47:19.400Z,98.70
2018-09-09T06:49:46.647Z,97.40
2018-09-09T06:52:13.892Z,97.50
2018-09-09T06:54:41.126Z,97.10
2018-09-09T06:57:08.352Z,96.40
2018-09-09T06:59:35.587Z,96.40
2018-09-09T07:02:02.824Z,96.90
2018-09-09T07:04:30.056Z,97.90
2018-09-09T07:06:57.284Z,97.60
2018-09-09T07:09:24.531Z,97.10
2018-09-09T07:11:51.974Z,97.60
2018-09-09T07:14:18.990Z,97.50
2018-09-09T07:16:46.221Z,98.60
2018-09-09T07:19:13.502Z,99.00
2018-09-09T07:21:40.693Z,99.90
2018-09-09T07:24:07.943Z,99.90
2018-09-09T07:26:35.194Z,99.90
2018-09-09T07:29:02.421Z,99.60
2018-09-09T07:31:29.663Z,99.80
2018-09-09T07:33:56.896Z,99.50
2018-09-09T07:36:24.102Z,98.80
2018-09-09T07:38:51.293Z,99.90
2018-09-09T07:41:18.493Z,98.00
2018-09-09T07:43:45.747Z,96.20
2018-09-09T07:46:12.921Z,96.30
2018-09-09T07:48:40.116Z,91.90
2018-09-09T07:51:07.339Z,91.50
2018-09-09T07:53:34.568Z,90.40
2018-09-09T07:56:01.776Z,87.50
2018-09-09T07:58:28.977Z,85.50
2018-09-09T08:00:56.189Z,86.90
2018-09-09T08:03:23.376Z,83.00
2018-09-09T08:05:50.563Z,89.00
2018-09-09T08:08:17.749Z,86.50
2018-09-09T08:10:44.968Z,88.90
2018-09-09T08:13:12.335Z,82.20
2018-09-09T08:15:39.536Z,80.70
2018-09-09T08:18:06.727Z,80.90
2018-09-09T08:20:33.920Z,81.30
2018-09-09T08:23:01.126Z,81.80
2018-09-09T08:25:28.316Z,87.30
2018-09-09T08:27:55.533Z,88.50
2018-09-09T08:30:22.732Z,87.80
2018-09-09T08:32:49.953Z,86.30
2018-09-09T08:35:17.194Z,85.40
2018-09-09T08:37:44.409Z,84.20
2018-09-09T08:40:11.611Z,83.80
2018-09-09T08:42:38.813Z,82.60
2018-09-09T08:45:06.040Z,82.60
2018-09-09T08:47:33.273Z,86.20
2018-09-09T08:50:00.505Z,81.20
2018-09-09T08:52:27.730Z,83.80
2018-09-09T08:54:54.938Z,76.90
2018-09-09T08:57:22.166Z,78.80
2018-09-09T08:59:49.541Z,76.90
2018-09-09T09:02:16.764Z,81.00
2018-09-09T09:04:43.975Z,78.40
2018-09-09T09:07:11.192Z,76.10
2018-09-09T09:09:38.421Z,72.10
2018-09-09T09:12:09.348Z,72.10
2018-09-09T09:14:36.738Z,71.10
2018-09-09T09:17:04.205Z,69.20
2018-09-09T09:19:31.424Z,72.30
2018-09-09T09:21:58.631Z,71.80
2018-09-09T09:24:26.206Z,71.90
2018-09-09T09:26:53.552Z,70.60
2018-09-09T09:29:20.764Z,70.00
2018-09-09T09:31:47.965Z,69.70
2018-09-09T09:34:15.180Z,70.30
2018-09-09T09:36:42.384Z,69.40
2018-09-09T09:39:09.607Z,68.30
2018-09-09T09:41:36.791Z,66.70
2018-09-09T09:44:04.132Z,68.80
2018-09-09T09:46:31.336Z,69.50
2018-09-09T09:48:58.543Z,71.90
2018-09-09T09:51:25.733Z,69.20
2018-09-09T09:53:52.931Z,69.50
2018-09-09T09:56:20.131Z,69.60
2018-09-09T09:58:47.343Z,67.70
2018-09-09T10:01:14.547Z,67.70
2018-09-09T10:03:41.756Z,67.00
2018-09-09T10:06:08.971Z,67.10
2018-09-09T10:08:36.180Z,69.90
2018-09-09T10:11:03.377Z,68.40
2018-09-09T10:13:30.583Z,69.30
2018-09-09T10:15:57.776Z,67.70
2018-09-09T10:18:24.981Z,70.10
2018-09-09T10:20:52.172Z,69.60
2018-09-09T10:23:19.379Z,69.80
2018-09-09T10:25:46.604Z,72.10
2018-09-09T10:28:13.815Z,69.70
2018-09-09T10:30:41.029Z,73.30
2018-09-09T10:33:08.275Z,74.10
2018-09-09T10:35:35.499Z,71.20
2018-09-09T10:38:03.007Z,73.20
2018-09-09T10:40:30.244Z,74.10
2018-09-09T10:42:57.452Z,76.20
2018-09-09T10:45:24.698Z,76.70
2018-09-09T10:47:51.914Z,78.30
2018-09-09T10:50:19.151Z,75.30
2018-09-09T10:52:46.381Z,74.40
2018-09-09T10:55:13.615Z,76.90
2018-09-09T10:57:40.841Z,77.40
2018-09-09T11:00:08.112Z,75.90
2018-09-09T11:02:35.344Z,72.50
2018-09-09T11:05:02.607Z,72.10
2018-09-09T11:07:29.927Z,72.10
2018-09-09T11:09:57.168Z,69.80
2018-09-09T11:12:30.061Z,71.20
2018-09-09T11:14:58.532Z,68.10
2018-09-09T11:17:26.092Z,70.00
2018-09-09T11:19:53.469Z,67.10
2018-09-09T11:22:20.703Z,68.80
2018-09-09T11:24:47.978Z,71.50
2018-09-09T11:27:15.184Z,71.10
2018-09-09T11:29:42.708Z,69.00
2018-09-09T11:32:09.950Z,72.40
2018-09-09T11:34:37.586Z,73.90
2018-09-09T11:37:04.900Z,75.30
2018-09-09T11:39:32.176Z,70.00
2018-09-09T11:41:59.436Z,66.10
2018-09-09T11:44:26.773Z,69.40
2018-09-09T11:46:54.047Z,68.10
2018-09-09T11:49:21.301Z,68.10
2018-09-09T11:51:48.576Z,67.20
2018-09-09T11:54:15.848Z,61.80
2018-09-09T11:56:43.136Z,60.90
2018-09-09T11:59:10.402Z,61.50
2018-09-09T12:01:37.664Z,58.60
2018-09-09T12:04:05.077Z,60.70
2018-09-09T12:06:32.319Z,63.40
2018-09-09T12:08:59.551Z,60.10
2018-09-09T12:11:26.789Z,58.30
2018-09-09T12:13:54.036Z,59.20
2018-09-09T12:16:21.291Z,56.90
2018-09-09T12:18:48.526Z,58.10
2018-09-09T12:21:15.777Z,61.50
2018-09-09T12:23:43.008Z,60.30
2018-09-09T12:26:10.242Z,59.90
2018-09-09T12:28:37.495Z,59.60
2018-09-09T12:31:04.892Z,59.60
2018-09-09T12:33:32.115Z,59.00
2018-09-09T12:35:59.348Z,58.40
2018-09-09T12:38:26.584Z,62.90
2018-09-09T12:40:53.834Z,60.80
2018-09-09T12:43:26.820Z,60.10
2018-09-09T12:45:59.818Z,59.50
2018-09-09T12:48:32.684Z,59.70
2018-09-09T12:51:00.308Z,59.40
2018-09-09T12:53:27.549Z,59.30
2018-09-09T12:55:54.763Z,60.10
2018-09-09T12:58:22.012Z,60.60
2018-09-09T13:00:49.255Z,58.60
2018-09-09T13:03:16.491Z,57.40
2018-09-09T13:05:43.752Z,58.40
2018-09-09T13:08:11.063Z,57.10
2018-09-09T13:10:38.379Z,55.90
2018-09-09T13:13:11.359Z,59.40
2018-09-09T13:15:38.603Z,55.60
2018-09-09T13:18:05.860Z,58.40
2018-09-09T13:20:33.073Z,59.50
2018-09-09T13:23:00.521Z,58.40
2018-09-09T13:25:27.780Z,57.70
2018-09-09T13:27:55.016Z,56.60
2018-09-09T13:30:22.354Z,58.70
2018-09-09T13:32:49.593Z,56.80
2018-09-09T13:35:16.840Z,57.00
2018-09-09T13:37:44.332Z,56.80
2018-09-09T13:40:11.560Z,55.20
2018-09-09T13:42:38.819Z,57.40
2018-09-09T13:45:06.360Z,56.50
2018-09-09T13:47:33.799Z,55.20
2018-09-09T13:50:01.220Z,54.50
2018-09-09T13:52:28.445Z,55.20
2018-09-09T13:54:55.658Z,56.80
2018-09-09T13:57:23.014Z,56.70
2018-09-09T13:59:50.298Z,57.30
2018-09-09T14:02:17.591Z,56.70
2018-09-09T14:04:44.801Z,59.20
2018-09-09T14:07:12.094Z,56.20
2018-09-09T14:09:39.303Z,57.50
2018-09-09T14:12:06.599Z,55.80
2018-09-09T14:14:33.875Z,57.90
2018-09-09T14:17:01.091Z,55.90
2018-09-09T14:19:28.419Z,54.60
2018-09-09T14:21:55.631Z,55.20
2018-09-09T14:24:22.852Z,55.40
2018-09-09T14:26:50.080Z,54.50
2018-09-09T14:29:17.363Z,54.40
2018-09-09T14:31:44.681Z,54.00
2018-09-09T14:34:11.914Z,54.90
2018-09-09T14:36:39.115Z,54.40
2018-09-09T14:39:07.428Z,55.20
2018-09-09T14:41:52.861Z,57.10
2018-09-09T14:44:20.536Z,56.40
2018-09-09T14:46:47.759Z,56.50
2018-09-09T14:49:15.191Z,57.50
2018-09-09T14:51:42.432Z,58.40
2018-09-09T14:54:09.691Z,58.40
2018-09-09T14:56:36.916Z,56.30
2018-09-09T14:59:04.184Z,57.20
2018-09-09T15:01:31.480Z,56.20
2018-09-09T15:03:58.735Z,57.60
2018-09-09T15:06:25.970Z,57.20
2018-09-09T15:08:53.188Z,56.70
2018-09-09T15:11:20.421Z,57.30
2018-09-09T15:13:47.661Z,57.10
2018-09-09T15:16:14.892Z,58.00
2018-09-09T15:18:42.117Z,58.10
2018-09-09T15:21:09.356Z,57.30
2018-09-09T15:23:36.584Z,57.30
2018-09-09T15:26:03.860Z,60.30
2018-09-09T15:28:31.105Z,57.10
2018-09-09T15:30:58.363Z,57.10
2018-09-09T15:33:25.601Z,56.30
2018-09-09T15:35:52.846Z,58.80
2018-09-09T15:38:20.064Z,58.00
2018-09-09T15:40:47.296Z,60.20
2018-09-09T15:43:14.528Z,58.70
2018-09-09T15:45:41.769Z,60.00
2018-09-09T15:48:09.073Z,58.20
2018-09-09T15:50:36.236Z,57.90
2018-09-09T15:53:03.476Z,58.60
2018-09-09T15:55:31.041Z,59.10
2018-09-09T15:57:58.258Z,58.70
2018-09-09T16:00:25.521Z,58.20
2018-09-09T16:02:52.767Z,61.10
2018-09-09T16:05:20.022Z,59.50
2018-09-09T16:07:47.244Z,60.00
2018-09-09T16:10:14.456Z,60.30
2018-09-09T16:12:41.839Z,59.50
2018-09-09T16:15:09.037Z,59.70
2018-09-09T16:17:36.352Z,59.60
2018-09-09T16:20:04.041Z,61.60
2018-09-09T16:22:31.274Z,63.00
2018-09-09T16:24:58.627Z,63.40
2018-09-09T16:27:25.844Z,64.50
2018-09-09T16:29:53.056Z,66.70
2018-09-09T16:32:20.281Z,65.70
2018-09-09T16:34:47.552Z,67.40
2018-09-09T16:37:14.764Z,68.50
2018-09-09T16:39:42.036Z,66.40
2018-09-09T16:42:09.200Z,66.90
2018-09-09T16:44:36.441Z,67.40
2018-09-09T16:47:03.664Z,66.90
2018-09-09T16:49:30.880Z,68.80
2018-09-09T16:51:58.164Z,69.00
2018-09-09T16:54:25.358Z,69.90
2018-09-09T16:56:52.620Z,70.70
2018-09-09T16:59:19.857Z,72.10
2018-09-09T17:01:47.059Z,72.30
2018-09-09T17:04:14.347Z,73.10
2018-09-09T17:06:41.531Z,72.80
2018-09-09T17:09:09.480Z,73.30
2018-09-09T17:11:36.751Z,73.50
2018-09-09T17:14:04.123Z,73.20
2018-09-09T17:16:31.311Z,73.10
2018-09-09T17:18:58.506Z,73.90
2018-09-09T17:21:25.695Z,73.60
2018-09-09T17:23:52.967Z,74.10
2018-09-09T17:26:20.280Z,74.30
2018-09-09T17:28:47.489Z,75.20
2018-09-09T17:31:14.691Z,76.40
2018-09-09T17:33:41.879Z,77.40
2018-09-09T17:36:09.137Z,77.10
2018-09-09T17:38:36.381Z,78.50
2018-09-09T17:41:03.683Z,78.60
2018-09-09T17:43:30.911Z,79.40
2018-09-09T17:45:58.131Z,80.10
2018-09-09T17:48:25.348Z,81.30
2018-09-09T17:50:52.560Z,81.70
2018-09-09T17:53:19.789Z,82.90
2018-09-09T17:55:47.037Z,83.30
2018-09-09T17:58:14.404Z,83.50
2018-09-09T18:00:41.676Z,84.30
2018-09-09T18:03:09.004Z,85.10
2018-09-09T18:05:36.257Z,86.00
2018-09-09T18:08:03.557Z,87.00
2018-09-09T18:10:30.927Z,88.00
2018-09-09T18:12:58.195Z,88.90
2018-09-09T18:15:25.407Z,89.20
2018-09-09T18:17:52.634Z,90.10
2018-09-09T18:20:19.940Z,90.30
2018-09-09T18:22:47.127Z,90.70
2018-09-09T18:25:14.328Z,90.70
2018-09-09T18:27:41.585Z,91.00
2018-09-09T18:30:08.818Z,91.20
2018-09-09T18:32:36.054Z,91.40
2018-09-09T18:35:03.372Z,91.60
2018-09-09T18:37:30.635Z,91.70
2018-09-09T18:39:57.843Z,91.90
2018-09-09T18:42:25.169Z,92.60
2018-09-09T18:44:52.431Z,92.30
2018-09-09T18:47:19.624Z,92.80
2018-09-09T18:49:46.848Z,93.30
2018-09-09T18:52:14.097Z,93.30
2018-09-09T18:54:41.315Z,93.50
2018-09-09T18:57:08.572Z,93.90
2018-09-09T18:59:35.805Z,94.10
2018-09-09T19:02:03.051Z,93.80
2018-09-09T19:04:30.340Z,94.10
2018-09-09T19:06:57.600Z,94.50
2018-09-09T19:09:24.826Z,94.90
2018-09-09T19:11:52.184Z,95.10
2018-09-09T19:14:19.439Z,95.90
2018-09-09T19:16:46.769Z,95.70
2018-09-09T19:19:13.996Z,96.20
2018-09-09T19:21:41.243Z,96.40
2018-09-09T19:24:08.725Z,96.70
2018-09-09T19:26:35.935Z,97.10
2018-09-09T19:29:03.210Z,97.00
2018-09-09T19:31:30.378Z,97.20
2018-09-09T19:33:57.834Z,97.50
2018-09-09T19:36:25.245Z,97.80
2018-09-09T19:38:52.461Z,97.70
2018-09-09T19:41:19.667Z,98.20
2018-09-09T19:43:46.901Z,98.20
2018-09-09T19:46:14.120Z,98.50
2018-09-09T19:48:41.312Z,98.30
2018-09-09T19:51:08.503Z,98.70
2018-09-09T19:53:35.739Z,98.70
2018-09-09T19:56:02.967Z,98.80
2018-09-09T19:58:30.171Z,99.00
2018-09-09T20:00:57.381Z,99.20
2018-09-09T20:03:24.589Z,99.20
2018-09-09T20:05:51.788Z,99.60
2018-09-09T20:08:19.012Z,99.90
2018-09-09T20:10:46.241Z,99.90
2018-09-09T20:13:13.459Z,99.90
2018-09-09T20:15:40.704Z,99.90
2018-09-09T20:18:08.015Z,99.90
2018-09-09T20:20:35.253Z,99.90
2018-09-09T20:23:02.478Z,99.90
2018-09-09T20:25:29.713Z,99.90
2018-09-09T20:27:57.028Z,99.90
2018-09-09T20:30:24.240Z,99.90
2018-09-09T20:32:51.452Z,99.90
2018-09-09T20:35:18.672Z,99.90
2018-09-09T20:37:45.871Z,99.90
2018-09-09T20:40:13.072Z,99.90
2018-09-09T20:42:40.267Z,99.90
2018-09-09T20:45:07.580Z,99.90
2018-09-09T20:47:34.796Z,99.90
2018-09-09T20:50:02.059Z,99.90
2018-09-09T20:52:29.259Z,99.90
2018-09-09T20:54:56.800Z,99.90
2018-09-09T20:57:23.996Z,99.90
2018-09-09T20:59:51.216Z,99.90
2018-09-09T21:02:18.419Z,99.90
2018-09-09T21:04:45.647Z,99.90
2018-09-09T21:07:12.924Z,99.90
2018-09-09T21:09:40.075Z,99.90
2018-09-09T21:12:07.300Z,99.90
2018-09-09T21:14:34.487Z,99.90
2018-09-09T21:17:02.515Z,99.90
2018-09-09T21:19:29.725Z,99.90
2018-09-09T21:21:56.928Z,99.90
2018-09-09T21:24:24.152Z,99.90
2018-09-09T21:26:51.365Z,99.90
2018-09-09T21:29:18.573Z,99.90
2018-09-09T21:31:45.799Z,99.90
2018-09-09T21:34:13.015Z,99.90
2018-09-09T21:36:40.244Z,99.90
2018-09-09T21:39:08.700Z,99.90
2018-09-09T21:41:36.201Z,99.90
2018-09-09T21:44:03.585Z,99.90
2018-09-09T21:46:30.849Z,99.90
2018-09-09T21:48:58.195Z,99.90
2018-09-09T21:51:25.536Z,99.90
2018-09-09T21:53:52.748Z,99.90
2018-09-09T21:56:19.972Z,99.90
2018-09-09T21:59:04.380Z,99.90
2018-09-09T22:01:37.317Z,99.90
2018-09-09T22:04:04.576Z,99.90
2018-09-09T22:06:31.800Z,99.90
2018-09-09T22:08:59.021Z,99.90
2018-09-09T22:11:26.479Z,99.90
2018-09-09T22:13:54.641Z,99.90
2018-09-09T22:16:21.922Z,99.90
2018-09-09T22:18:49.163Z,99.90
2018-09-09T22:21:16.408Z,99.90
2018-09-09T22:23:43.704Z,99.90
2018-09-09T22:26:10.959Z,99.90
2018-09-09T22:28:38.186Z,99.90
2018-09-09T22:31:05.423Z,99.90
2018-09-09T22:33:32.635Z,99.90
2018-09-09T22:35:59.860Z,99.90
2018-09-09T22:38:27.115Z,99.90
2018-09-09T22:40:54.344Z,99.90
2018-09-09T22:43:21.739Z,99.90
2018-09-09T22:45:54.583Z,99.90
2018-09-09T22:48:21.776Z,99.90
2018-09-09T22:50:48.959Z,99.90
2018-09-09T22:53:16.164Z,99.90
2018-09-09T22:55:43.372Z,99.90
2018-09-09T22:58:10.578Z,99.90
2018-09-09T23:00:38.019Z,99.90
2018-09-09T23:03:05.835Z,99.90
2018-09-09T23:05:33.143Z,99.90
2018-09-09T23:08:00.292Z,99.90
2018-09-09T23:10:27.484Z,99.90
2018-09-09T23:12:54.673Z,99.90
2018-09-09T23:15:26.314Z,99.90
2018-09-09T23:17:54.096Z,99.90
2018-09-09T23:20:21.555Z,99.90
2018-09-09T23:22:49.248Z,99.90
2018-09-09T23:25:16.467Z,99.90
2018-09-09T23:27:43.664Z,99.90
2018-09-09T23:30:10.875Z,99.90
2018-09-09T23:32:38.096Z,99.90
2018-09-09T23:35:05.315Z,99.90
2018-09-09T23:37:32.544Z,99.90
2018-09-09T23:39:59.951Z,99.90
2018-09-09T23:42:27.168Z,99.90
2018-09-09T23:44:54.397Z,99.90
2018-09-09T23:47:21.615Z,99.90
2018-09-09T23:49:48.835Z,99.90
2018-09-09T23:52:16.313Z,99.90
2018-09-09T23:54:43.787Z,99.90
2018-09-09T23:57:11.009Z,99.90
2018-09-09T23:59:38.258Z,99.90
